Time;durP1;ratioP1;P1;durP2;ratioP2;P2;SDS_P1;SDS_P2;PMS_P1;PMS_P2;Temp;Humidity;BMP_temperature;BMP_pressure;BME280_temperature;BME280_humidity;BME280_pressure;Samples;Min_cycle;Max_cycle;Signal;HPM_P1;HPM_P2
2022/10/06 00:03:42;;;;;;;62.33;9.55;;;;;9.90;97114.00;;;;8359303;28;20224;-72
2022/10/06 00:07:45;;;;;;;16.50;7.45;;;;;9.90;97112.00;;;;8359718;28;20550;-72
2022/10/06 00:11:49;;;;;;;21.33;8.47;;;;;9.90;97124.00;;;;8359691;28;20225;-72
2022/10/06 00:16:26;;;;;;;15.97;7.97;;;;;9.90;97114.00;;;;8363531;28;20224;-72
2022/10/06 00:20:29;;;;;;;43.42;10.20;;;;;9.90;97119.00;;;;8366542;28;20216;-71
2022/10/06 00:24:33;;;;;;;14.50;7.37;;;;;9.90;97120.00;;;;8365174;28;20223;-72
2022/10/06 00:28:38;;;;;;;19.15;7.72;;;;;9.90;97123.00;;;;8365505;28;20224;-71
2022/10/06 00:32:42;;;;;;;16.70;8.70;;;;;9.90;97118.00;;;;8365328;28;20282;-71
2022/10/06 00:36:45;;;;;;;285.38;21.17;;;;;9.90;97120.00;;;;8365757;28;20276;-70
2022/10/06 00:40:50;;;;;;;16.37;9.17;;;;;9.90;97124.00;;;;8365157;28;20224;-70
2022/10/06 00:44:57;;;;;;;15.98;8.82;;;;;9.90;97123.00;;;;8365196;28;20224;-69
2022/10/06 00:49:05;;;;;;;19.43;8.47;;;;;9.90;97127.00;;;;8364468;28;20228;-70
2022/10/06 00:53:09;;;;;;;16.65;7.78;;;;;9.90;97127.00;;;;8365468;28;20225;-69
2022/10/06 00:57:13;;;;;;;13.27;7.82;;;;;9.80;97140.00;;;;8364488;28;20662;-70
2022/10/06 01:01:47;;;;;;;20.10;8.20;;;;;9.70;97132.00;;;;8365582;28;20236;-70
2022/10/06 01:05:52;;;;;;;20.43;8.90;;;;;9.70;97148.00;;;;8363215;28;20216;-70
2022/10/06 01:09:56;;;;;;;16.35;8.43;;;;;9.70;97143.00;;;;8364827;28;20255;-70
2022/10/06 01:13:59;;;;;;;19.50;7.82;;;;;9.70;97147.00;;;;8363346;28;20220;-70
2022/10/06 01:18:06;;;;;;;15.40;8.80;;;;;9.60;97144.00;;;;8364248;28;20565;-70
2022/10/06 01:22:14;;;;;;;17.73;8.37;;;;;9.60;97143.00;;;;8364354;28;20716;-70
2022/10/06 01:26:22;;;;;;;17.65;8.40;;;;;9.60;97149.00;;;;8363078;28;20239;-70
2022/10/06 01:30:53;;;;;;;14.33;8.37;;;;;9.60;97153.00;;;;8363924;28;20666;-70
2022/10/06 01:34:57;;;;;;;26.10;8.35;;;;;9.60;97151.00;;;;8364175;28;20224;-70
2022/10/06 01:39:00;;;;;;;21.33;8.70;;;;;9.60;97159.00;;;;8363190;28;20635;-70
2022/10/06 01:43:38;;;;;;;20.75;9.23;;;;;9.60;97146.00;;;;8364166;28;20228;-70
2022/10/06 01:47:41;;;;;;;20.77;8.20;;;;;9.60;97148.00;;;;8351697;28;20359;-69
2022/10/06 01:51:46;;;;;;;21.27;8.93;;;;;9.60;97150.00;;;;8363445;28;20213;-70
2022/10/06 01:55:49;;;;;;;14.50;8.00;;;;;9.70;97155.00;;;;8363094;28;20243;-69
2022/10/06 01:59:54;;;;;;;18.25;8.25;;;;;9.70;97158.00;;;;8363048;28;20235;-70
2022/10/06 02:03:57;;;;;;;14.27;7.60;;;;;9.70;97151.00;;;;8362085;28;20232;-69
2022/10/06 02:13:15;;;;;;;15.15;7.50;;;;;9.60;97163.00;;;;8362213;28;20226;-69
2022/10/06 02:17:21;;;;;;;18.40;8.48;;;;;9.60;97171.00;;;;8362146;28;20236;-70
2022/10/06 02:21:24;;;;;;;13.98;7.75;;;;;9.60;97168.00;;;;8363115;28;20220;-69
2022/10/06 02:25:27;;;;;;;12.43;7.50;;;;;9.60;97164.00;;;;8361389;28;20216;-69
2022/10/06 02:29:30;;;;;;;17.43;7.73;;;;;9.50;97167.00;;;;8362106;28;20224;-70
2022/10/06 02:34:09;;;;;;;13.77;8.13;;;;;9.50;97178.00;;;;8361533;28;20231;-69
2022/10/06 02:38:12;;;;;;;25.67;8.20;;;;;9.50;97173.00;;;;8361201;28;20216;-69
2022/10/06 02:42:49;;;;;;;20.43;8.77;;;;;9.50;97179.00;;;;8361975;28;20603;-69
2022/10/06 02:46:52;;;;;;;16.40;7.63;;;;;9.40;97176.00;;;;8361889;28;20216;-70
2022/10/06 02:50:58;;;;;;;16.25;8.57;;;;;9.40;97180.00;;;;8361607;28;20226;-69
2022/10/06 02:55:03;;;;;;;18.25;8.02;;;;;9.40;97183.00;;;;8361458;28;20224;-69
2022/10/06 02:59:36;;;;;;;14.33;7.90;;;;;9.40;97187.00;;;;8360609;28;20228;-70
2022/10/06 03:03:40;;;;;;;16.77;8.20;;;;;9.40;97186.00;;;;8359961;28;20229;-69
2022/10/06 03:07:44;;;;;;;13.20;7.87;;;;;9.40;97194.00;;;;8361179;28;20235;-69
2022/10/06 03:11:48;;;;;;;20.10;8.90;;;;;9.30;97198.00;;;;8360935;28;20244;-69
2022/10/06 03:16:24;;;;;;;16.87;8.73;;;;;9.30;97205.00;;;;8361665;28;22167;-69
2022/10/06 03:20:27;;;;;;;16.23;8.50;;;;;9.30;97214.00;;;;8360189;28;20220;-69
2022/10/06 03:25:06;;;;;;;20.60;9.43;;;;;9.30;97216.00;;;;8360545;28;20224;-69
2022/10/06 03:29:10;;;;;;;16.40;8.55;;;;;9.40;97219.00;;;;8360547;28;20225;-69
2022/10/06 03:33:14;;;;;;;16.03;8.33;;;;;9.40;97222.00;;;;8360437;28;20220;-69
2022/10/06 03:37:17;;;;;;;21.17;9.07;;;;;9.40;97231.00;;;;8359591;28;20219;-69
2022/10/06 03:41:24;;;;;;;16.10;8.40;;;;;9.30;97239.00;;;;8360568;28;20220;-69
2022/10/06 03:45:59;;;;;;;21.35;8.77;;;;;9.30;97238.00;;;;8360215;28;20224;-69
2022/10/06 03:50:03;;;;;;;19.00;8.13;;;;;9.30;97244.00;;;;8362129;28;20216;-68
2022/10/06 03:54:32;;;;;;;22.75;9.15;;;;;9.20;97255.00;;;;8366050;28;20691;-69
2022/10/06 03:59:12;;;;;;;22.85;8.13;;;;;9.10;97268.00;;;;8364765;28;20220;-68
2022/10/06 04:03:46;;;;;;;18.57;8.10;;;;;9.10;97263.00;;;;8366200;28;20217;-69
2022/10/06 04:13:04;;;;;;;31.93;9.07;;;;;9.20;97272.00;;;;8365653;28;20331;-70
2022/10/06 04:17:40;;;;;;;23.63;9.07;;;;;9.10;97277.00;;;;8355392;28;20225;-69
2022/10/06 04:22:14;;;;;;;20.07;8.80;;;;;9.00;97267.00;;;;8365008;28;20216;-69
2022/10/06 04:26:51;;;;;;;20.15;8.82;;;;;9.10;97276.00;;;;8364781;28;20638;-69
2022/10/06 04:31:29;;;;;;;17.67;8.67;;;;;9.10;97278.00;;;;8366208;28;20225;-70
2022/10/06 04:36:08;;;;;;;26.73;10.50;;;;;9.10;97282.00;;;;8364546;28;20304;-69
2022/10/06 04:40:42;;;;;;;19.27;8.57;;;;;9.10;97291.00;;;;8365410;28;20223;-69
2022/10/06 04:45:19;;;;;;;18.80;8.90;;;;;9.00;97290.00;;;;8367613;28;20248;-69
2022/10/06 04:49:56;;;;;;;19.60;8.90;;;;;9.00;97305.00;;;;8365663;28;20220;-69
2022/10/06 04:54:01;;;;;;;18.07;8.33;;;;;9.10;97306.00;;;;8364305;28;20618;-69
2022/10/06 04:58:36;;;;;;;27.20;9.93;;;;;9.10;97310.00;;;;8364960;28;20225;-69
2022/10/06 05:03:10;;;;;;;23.73;9.30;;;;;9.20;97318.00;;;;8363221;28;20217;-69
2022/10/06 05:07:13;;;;;;;22.43;9.23;;;;;9.20;97330.00;;;;8364302;28;20228;-69
2022/10/06 05:11:50;;;;;;;21.73;9.67;;;;;9.30;97331.00;;;;8364960;28;20225;-69
2022/10/06 05:15:58;;;;;;;17.40;9.17;;;;;9.30;97346.00;;;;8364039;28;20243;-69
2022/10/06 05:20:32;;;;;;;21.10;9.60;;;;;9.30;97354.00;;;;8364380;28;20558;-69
2022/10/06 05:25:09;;;;;;;22.67;11.13;;;;;9.40;97342.00;;;;8363793;28;20551;-70
2022/10/06 05:29:13;;;;;;;24.42;10.75;;;;;9.50;97358.00;;;;8364206;28;20335;-69
2022/10/06 05:33:48;;;;;;;21.47;10.20;;;;;9.60;97361.00;;;;8363761;28;20570;-69
2022/10/06 05:38:22;;;;;;;23.37;11.03;;;;;9.70;97360.00;;;;8363680;28;20212;-69
2022/10/06 05:42:59;;;;;;;30.20;13.43;;;;;9.90;97370.00;;;;8363502;28;20228;-69
2022/10/06 05:47:36;;;;;;;29.90;14.60;;;;;10.10;97366.00;;;;8363686;28;20221;-69
2022/10/06 05:52:15;;;;;;;24.53;12.77;;;;;10.30;97368.00;;;;8362924;28;20212;-70
2022/10/06 05:56:48;;;;;;;23.17;11.23;;;;;10.50;97379.00;;;;8362744;28;20278;-69
2022/10/06 06:01:26;;;;;;;25.77;12.05;;;;;10.60;97384.00;;;;8362986;28;20221;-69
2022/10/06 06:06:00;;;;;;;27.05;10.85;;;;;10.80;97382.00;;;;8362371;28;20243;-69
2022/10/06 06:16:00;;;;;;;23.98;12.30;;;;;11.20;97407.00;;;;8362864;28;20233;-69
2022/10/06 06:20:04;;;;;;;24.83;11.00;;;;;11.50;97410.00;;;;8363289;28;20268;-69
2022/10/06 06:24:08;;;;;;;22.50;11.90;;;;;11.80;97420.00;;;;8362999;28;20553;-69
2022/10/06 06:28:11;;;;;;;33.28;12.82;;;;;11.90;97437.00;;;;8361638;28;20259;-70
2022/10/06 06:32:49;;;;;;;28.20;12.07;;;;;12.20;97445.00;;;;8361521;28;20650;-70
2022/10/06 06:36:54;;;;;;;20.88;12.23;;;;;12.50;97446.00;;;;8350700;28;20536;-70
2022/10/06 06:41:29;;;;;;;26.20;13.27;;;;;12.80;97455.00;;;;8360993;28;20608;-70
2022/10/06 06:46:06;;;;;;;29.13;12.13;;;;;13.00;97460.00;;;;8361391;28;20227;-70
2022/10/06 06:50:43;;;;;;;20.05;12.40;;;;;13.30;97469.00;;;;8361356;28;20269;-70
2022/10/06 06:55:22;;;;;;;22.52;10.63;;;;;13.60;97476.00;;;;8361460;28;20273;-70
2022/10/06 06:59:25;;;;;;;16.00;9.02;;;;;13.90;97479.00;;;;8360536;28;20232;-70
2022/10/06 07:04:02;;;;;;;16.45;8.57;;;;;14.30;97492.00;;;;8360733;28;20232;-70
2022/10/06 07:08:40;;;;;;;12.48;7.50;;;;;14.60;97495.00;;;;8360820;28;20235;-71
2022/10/06 07:13:16;;;;;;;15.93;8.07;;;;;14.90;97512.00;;;;8350236;28;20242;-71
2022/10/06 07:27:04;;;;;;;13.68;6.95;;;;;15.60;97520.00;;;;8360055;28;20223;-70
2022/10/06 07:31:43;;;;;;;17.63;8.45;;;;;15.90;97525.00;;;;8357464;28;20235;-71
2022/10/06 07:35:46;;;;;;;9.88;5.72;;;;;16.20;97531.00;;;;8359448;28;20594;-73
2022/10/06 07:39:50;;;;;;;11.50;5.50;;;;;16.30;97529.00;;;;8359578;28;20220;-72
2022/10/06 07:44:27;;;;;;;9.25;5.07;;;;;16.30;97530.00;;;;8359427;28;20685;-72
2022/10/06 07:49:04;;;;;;;9.32;5.00;;;;;16.20;97535.00;;;;8359758;28;20229;-73
2022/10/06 07:53:45;;;;;;;10.13;5.60;;;;;16.30;97537.00;;;;8359414;28;20236;-71
2022/10/06 07:58:17;;;;;;;8.75;4.65;;;;;16.40;97547.00;;;;8358686;28;20673;-72
2022/10/06 08:02:53;;;;;;;7.78;4.40;;;;;16.60;97550.00;;;;8359438;28;20562;-70
2022/10/06 08:07:27;;;;;;;6.60;4.05;;;;;16.80;97561.00;;;;8359259;28;20236;-72
2022/10/06 08:16:45;;;;;;;9.27;4.47;;;;;17.30;97573.00;;;;8357500;28;20266;-72
2022/10/06 08:21:20;;;;;;;12.20;4.13;;;;;17.80;97580.00;;;;8359219;28;20221;-73
2022/10/06 08:25:55;;;;;;;7.72;4.40;;;;;17.90;97574.00;;;;8358203;28;20263;-73
2022/10/06 08:30:29;;;;;;;5.78;3.95;;;;;18.20;97583.00;;;;8348310;28;20220;-74
2022/10/06 08:35:07;;;;;;;6.65;4.28;;;;;18.40;97585.00;;;;8358296;28;20273;-75
2022/10/06 08:39:42;;;;;;;8.77;4.07;;;;;18.90;97583.00;;;;8363551;28;20252;-74
2022/10/06 08:44:22;;;;;;;6.43;3.60;;;;;19.40;97579.00;;;;8364845;28;20227;-75
2022/10/06 08:49:00;;;;;;;9.70;3.67;;;;;19.50;97585.00;;;;8365191;28;20266;-76
2022/10/06 08:53:38;;;;;;;5.45;3.70;;;;;19.60;97597.00;;;;8363937;28;20681;-76
2022/10/06 08:58:20;;;;;;;7.10;4.20;;;;;19.70;97595.00;;;;8364856;28;20634;-75
2022/10/06 09:02:48;;;;;;;5.53;3.50;;;;;19.90;97598.00;;;;8364691;28;20270;-77
2022/10/06 09:07:15;;;;;;;9.68;4.55;;;;;20.10;97590.00;;;;8364149;28;20250;-75
2022/10/06 09:12:03;;;;;;;8.57;4.32;;;;;20.20;97602.00;;;;8363614;28;20246;-75
2022/10/06 09:16:08;;;;;;;8.60;3.95;;;;;20.50;97613.00;;;;8363107;28;20237;-73
2022/10/06 09:20:42;;;;;;;9.50;3.88;;;;;20.40;97603.00;;;;8364924;28;20251;-73
2022/10/06 09:25:21;;;;;;;8.75;4.60;;;;;20.10;97609.00;;;;8363656;28;20239;-74
2022/10/06 09:29:56;;;;;;;5.40;4.57;;;;;19.80;97611.00;;;;8363675;28;20224;-73
2022/10/06 09:34:37;;;;;;;7.60;4.53;;;;;19.80;97619.00;;;;8363410;28;20220;-72
2022/10/06 09:39:11;;;;;;;9.77;4.32;;;;;19.70;97612.00;;;;8363659;28;20225;-70
2022/10/06 09:43:24;;;;;;;8.18;4.40;;;;;19.80;97616.00;;;;8362588;28;20228;-71
2022/10/06 09:47:35;;;;;;;8.45;4.20;;;;;19.80;97631.00;;;;8363583;28;20224;-69
2022/10/06 09:52:11;;;;;;;5.72;4.28;;;;;20.10;97630.00;;;;8362493;28;20233;-70
2022/10/06 09:56:43;;;;;;;5.60;3.83;;;;;20.30;97628.00;;;;8363118;28;20269;-70
2022/10/06 10:01:22;;;;;;;4.18;3.63;;;;;20.60;97629.00;;;;8363479;28;20232;-69
2022/10/06 10:05:55;;;;;;;8.85;3.60;;;;;20.80;97641.00;;;;8362082;28;20685;-71
2022/10/06 10:10:29;;;;;;;10.90;3.70;;;;;20.90;97650.00;;;;8362979;28;20270;-70
2022/10/06 10:15:25;;;;;;;4.47;3.35;;;;;20.60;97653.00;;;;8351724;28;20239;-71
2022/10/06 10:19:46;;;;;;;5.93;3.03;;;;;20.60;97647.00;;;;8362301;28;20231;-70
2022/10/06 10:24:30;;;;;;;5.43;3.10;;;;;20.70;97650.00;;;;8362148;28;20299;-71
2022/10/06 10:29:04;;;;;;;6.15;2.65;;;;;20.50;97652.00;;;;8362300;28;20247;-70
2022/10/06 10:33:15;;;;;;;3.95;2.97;;;;;20.30;97656.00;;;;8360124;28;20228;-70
2022/10/06 10:37:45;;;;;;;8.00;3.40;;;;;20.10;97673.00;;;;8362320;28;20217;-70
2022/10/06 10:42:23;;;;;;;4.80;3.60;;;;;19.50;97686.00;;;;8361481;28;20262;-69
2022/10/06 10:47:03;;;;;;;6.60;3.83;;;;;19.10;97688.00;;;;8361093;28;20216;-69
2022/10/06 10:51:33;;;;;;;4.55;3.55;;;;;19.00;97694.00;;;;8361398;28;20282;-70
2022/10/06 10:56:12;;;;;;;5.25;3.92;;;;;19.20;97684.00;;;;8360369;28;20402;-70
2022/10/06 11:00:50;;;;;;;4.60;3.38;;;;;19.60;97690.00;;;;8360265;28;20223;-70
2022/10/06 11:05:25;;;;;;;3.05;2.85;;;;;19.60;97692.00;;;;8359393;28;20231;-70
2022/10/06 11:09:55;;;;;;;7.35;3.20;;;;;19.60;97691.00;;;;8361494;28;20224;-70
2022/10/06 11:14:34;;;;;;;4.70;2.90;;;;;19.60;97678.00;;;;8360372;28;20212;-70
2022/10/06 11:24:23;;;;;;;4.00;2.80;;;;;19.30;97668.00;;;;8359666;28;20226;-69
2022/10/06 11:28:55;;;;;;;1.95;1.85;;;;;19.30;97665.00;;;;8360137;28;20224;-69
2022/10/06 11:33:29;;;;;;;2.60;1.92;;;;;19.40;97662.00;;;;8359616;28;20291;-70
2022/10/06 11:38:10;;;;;;;6.72;2.20;;;;;19.50;97667.00;;;;8360088;28;20565;-69
2022/10/06 11:42:46;;;;;;;1.73;1.63;;;;;19.70;97669.00;;;;8359075;28;20231;-69
2022/10/06 11:47:19;;;;;;;1.48;1.38;;;;;20.10;97679.00;;;;8358971;28;20221;-69
2022/10/06 11:51:55;;;;;;;2.05;1.95;;;;;20.10;97678.00;;;;8359320;28;20225;-70
2022/10/06 11:56:45;;;;;;;1.92;1.83;;;;;20.10;97681.00;;;;8359741;28;20296;-70
2022/10/06 12:00:51;;;;;;;1.77;1.60;;;;;20.30;97673.00;;;;8359836;28;20217;-70
2022/10/06 12:05:31;;;;;;;1.70;1.60;;;;;20.20;97676.00;;;;8359335;28;20648;-71
2022/10/06 12:10:33;;;;;;;4.60;1.52;;;;;20.00;97685.00;;;;8359531;28;20307;-70
2022/10/06 12:14:43;;;;;;;2.85;1.50;;;;;20.00;97679.00;;;;8365513;28;20220;-69
2022/10/06 12:19:20;;;;;;;5.20;1.58;;;;;20.20;97670.00;;;;8366272;28;20225;-69
2022/10/06 12:23:39;;;;;;;4.72;1.58;;;;;20.20;97678.00;;;;8366217;28;20570;-69
2022/10/06 12:28:09;;;;;;;3.30;1.48;;;;;20.20;97662.00;;;;8365560;28;20224;-70
2022/10/06 12:32:34;;;;;;;3.83;1.67;;;;;20.20;97662.00;;;;8365462;28;20600;-70
2022/10/06 12:36:38;;;;;;;4.65;1.55;;;;;20.10;97667.00;;;;8366149;28;20596;-70
2022/10/06 12:41:14;;;;;;;3.33;1.50;;;;;20.00;97651.00;;;;8365136;28;20286;-70
2022/10/06 12:45:17;;;;;;;2.60;1.67;;;;;20.00;97653.00;;;;8365776;28;20223;-70
2022/10/06 12:49:40;;;;;;;4.68;1.27;;;;;19.90;97652.00;;;;8365676;28;20332;-70
2022/10/06 12:53:56;;;;;;;5.07;1.60;;;;;19.80;97650.00;;;;8365414;28;20676;-70
2022/10/06 12:58:27;;;;;;;3.20;1.50;;;;;19.80;97649.00;;;;8364513;28;20232;-70
2022/10/06 13:02:59;;;;;;;2.15;1.42;;;;;19.80;97637.00;;;;8365529;28;20220;-70
2022/10/06 13:07:13;;;;;;;2.35;1.35;;;;;19.70;97634.00;;;;8363995;28;20646;-70
2022/10/06 13:11:42;;;;;;;2.30;1.42;;;;;19.80;97641.00;;;;8354101;28;20236;-70
2022/10/06 13:15:46;;;;;;;6.38;1.48;;;;;19.80;97631.00;;;;8363510;28;20216;-70
2022/10/06 13:20:28;;;;;;;3.13;1.20;;;;;19.80;97637.00;;;;8364082;28;20562;-70
2022/10/06 13:24:31;;;;;;;4.93;1.38;;;;;20.00;97626.00;;;;8361777;28;20239;-70
2022/10/06 13:28:51;;;;;;;2.58;1.50;;;;;20.00;97638.00;;;;8363891;28;20550;-70
2022/10/06 13:32:56;;;;;;;2.00;1.58;;;;;20.00;97638.00;;;;8362096;28;20574;-70
2022/10/06 13:37:30;;;;;;;3.97;1.52;;;;;20.20;97636.00;;;;8363581;28;20220;-70
2022/10/06 13:42:09;;;;;;;2.92;1.40;;;;;20.40;97625.00;;;;8359568;28;20573;-70
2022/10/06 13:46:47;;;;;;;2.20;1.38;;;;;20.80;97635.00;;;;8360717;28;20645;-70
2022/10/06 13:51:20;;;;;;;2.22;1.25;;;;;21.10;97628.00;;;;8358298;28;20224;-70
2022/10/06 13:55:54;;;;;;;5.35;1.55;;;;;21.20;97627.00;;;;8363085;28;20685;-70
2022/10/06 14:00:31;;;;;;;4.22;1.60;;;;;21.20;97627.00;;;;8362767;28;20235;-70
2022/10/06 14:05:05;;;;;;;2.15;1.30;;;;;21.30;97631.00;;;;8359050;28;20221;-70
2022/10/06 14:09:12;;;;;;;4.03;1.60;;;;;21.20;97640.00;;;;8361829;28;20311;-70
2022/10/06 14:13:47;;;;;;;4.15;1.40;;;;;21.40;97631.00;;;;8362613;28;20243;-69
2022/10/06 14:18:28;;;;;;;3.28;1.42;;;;;21.70;97627.00;;;;8361663;28;20626;-70
2022/10/06 14:22:37;;;;;;;1.40;1.30;;;;;22.00;97632.00;;;;8362279;28;20216;-71
2022/10/06 14:27:07;;;;;;;3.30;1.60;;;;;22.10;97627.00;;;;8360798;28;20225;-71
2022/10/06 14:31:44;;;;;;;2.35;1.30;;;;;22.20;97622.00;;;;8362278;28;20263;-71
2022/10/06 14:35:48;;;;;;;1.40;1.30;;;;;22.30;97623.00;;;;8361694;28;20562;-71
2022/10/06 14:39:54;;;;;;;4.53;1.58;;;;;22.30;97624.00;;;;8361526;28;20237;-71
2022/10/06 14:44:28;;;;;;;3.10;1.45;;;;;22.20;97620.00;;;;8361359;28;20638;-71
2022/10/06 14:49:06;;;;;;;5.30;1.33;;;;;21.70;97614.00;;;;8361466;28;20549;-70
2022/10/06 14:53:11;;;;;;;2.78;1.40;;;;;21.60;97618.00;;;;8358311;28;20244;-70
2022/10/06 14:57:16;;;;;;;3.67;1.42;;;;;21.50;97613.00;;;;8348467;28;20224;-70
2022/10/06 15:01:23;;;;;;;2.83;1.27;;;;;21.30;97609.00;;;;8362032;28;20232;-70
2022/10/06 15:05:26;;;;;;;1.95;1.15;;;;;21.10;97613.00;;;;8361497;28;20235;-70
2022/10/06 15:10:02;;;;;;;1.10;1.10;;;;;20.90;97611.00;;;;8361076;28;20220;-70
2022/10/06 15:14:07;;;;;;;2.15;1.20;;;;;20.90;97613.00;;;;8359041;28;20633;-70
2022/10/06 15:23:30;;;;;;;1.50;1.40;;;;;20.70;97610.00;;;;8358079;28;20302;-71
2022/10/06 15:31:55;;;;;;;1.13;1.10;;;;;20.40;97603.00;;;;8360447;28;20273;-70
2022/10/06 15:36:32;;;;;;;2.97;1.25;;;;;20.30;97601.00;;;;8360306;28;20216;-71
2022/10/06 15:41:08;;;;;;;1.30;1.20;;;;;20.10;97607.00;;;;8360492;28;20610;-68
2022/10/06 15:45:12;;;;;;;3.35;1.20;;;;;20.00;97614.00;;;;8359293;28;20227;-68
2022/10/06 15:49:50;;;;;;;2.53;1.30;;;;;19.80;97608.00;;;;8360057;28;20215;-68
2022/10/06 15:54:25;;;;;;;4.13;1.38;;;;;19.60;97606.00;;;;8359539;28;20224;-68
2022/10/06 15:59:02;;;;;;;1.88;1.30;;;;;19.40;97607.00;;;;8359659;28;20704;-68
2022/10/06 16:03:43;;;;;;;3.00;1.30;;;;;19.30;97610.00;;;;8359529;28;20647;-68
2022/10/06 16:07:47;;;;;;;2.10;1.25;;;;;19.00;97610.00;;;;8359012;28;20569;-68
2022/10/06 16:12:23;;;;;;;2.08;1.13;;;;;18.80;97608.00;;;;8359221;28;20275;-68
2022/10/06 16:16:57;;;;;;;3.97;1.33;;;;;18.60;97614.00;;;;8358055;28;20254;-68
2022/10/06 16:26:22;;;;;;;3.42;1.60;;;;;17.80;97628.00;;;;8359372;28;20282;-68
2022/10/06 16:30:56;;;;;;;4.28;1.98;;;;;17.40;97622.00;;;;8348970;28;20220;-68
2022/10/06 16:35:30;;;;;;;2.28;1.42;;;;;16.90;97619.00;;;;8359486;28;20221;-68
2022/10/06 16:40:07;;;;;;;2.38;1.45;;;;;16.50;97630.00;;;;8350699;28;20221;-68
2022/10/06 16:44:12;;;;;;;3.45;2.30;;;;;16.20;97629.00;;;;8358313;28;20220;-69
2022/10/06 16:48:46;;;;;;;3.80;1.98;;;;;15.80;97637.00;;;;8358963;28;20270;-68
2022/10/06 16:53:04;;;;;;;5.28;2.88;;;;;15.50;97629.00;;;;8358927;28;20224;-68
2022/10/06 16:57:08;;;;;;;10.48;3.90;;;;;15.20;97632.00;;;;8356312;28;20662;-67
2022/10/06 17:01:14;;;;;;;8.05;3.72;;;;;15.00;97627.00;;;;8365692;28;20236;-69
2022/10/06 17:05:48;;;;;;;10.82;4.50;;;;;14.80;97635.00;;;;8364736;28;20244;-68
2022/10/06 17:09:51;;;;;;;7.50;4.47;;;;;14.50;97637.00;;;;8364811;28;20613;-69
2022/10/06 17:14:15;;;;;;;9.13;4.90;;;;;14.30;97632.00;;;;8364488;28;20239;-69
2022/10/06 17:18:49;;;;;;;31.38;9.15;;;;;14.20;97630.00;;;;8363578;28;20236;-68
2022/10/06 17:23:28;;;;;;;22.88;6.82;;;;;14.10;97637.00;;;;8363902;28;20212;-69
2022/10/06 17:28:02;;;;;;;50.38;16.30;;;;;13.90;97633.00;;;;8362312;28;20216;-69
2022/10/06 17:32:39;;;;;;;35.78;11.38;;;;;13.70;97632.00;;;;8360655;28;20657;-69
2022/10/06 17:37:16;;;;;;;13.07;5.05;;;;;13.60;97626.00;;;;8363026;28;20222;-68
2022/10/06 17:41:26;;;;;;;6.80;4.18;;;;;13.70;97633.00;;;;8363050;28;20251;-68
2022/10/06 17:45:30;;;;;;;10.18;4.53;;;;;13.80;97634.00;;;;8363853;28;20221;-67
2022/10/06 17:50:07;;;;;;;7.05;3.78;;;;;13.70;97633.00;;;;8362640;28;20219;-68
2022/10/06 17:54:45;;;;;;;8.63;4.03;;;;;13.70;97627.00;;;;8362782;28;20602;-67
2022/10/06 17:59:24;;;;;;;9.23;3.05;;;;;13.60;97634.00;;;;8362838;28;20286;-67
2022/10/06 18:03:58;;;;;;;4.60;3.25;;;;;13.60;97637.00;;;;8363402;28;20250;-67
2022/10/06 18:08:32;;;;;;;8.05;4.88;;;;;13.50;97634.00;;;;8362849;28;20212;-67
2022/10/06 18:13:09;;;;;;;9.35;4.28;;;;;13.40;97632.00;;;;8363415;28;20228;-67
2022/10/06 18:17:49;;;;;;;6.75;3.50;;;;;13.20;97632.00;;;;8361969;28;20306;-68
2022/10/06 18:27:08;;;;;;;6.80;4.28;;;;;13.00;97636.00;;;;8362304;28;20266;-67
2022/10/06 18:31:48;;;;;;;9.35;4.30;;;;;12.80;97631.00;;;;8361750;28;20227;-67
2022/10/06 18:36:24;;;;;;;7.72;4.43;;;;;12.60;97630.00;;;;8357161;28;20693;-67
2022/10/06 18:40:53;;;;;;;7.00;4.05;;;;;12.40;97635.00;;;;8361014;28;20235;-67
2022/10/06 18:49:53;;;;;;;9.57;3.50;;;;;12.10;97628.00;;;;8361730;28;20279;-67
2022/10/06 18:54:32;;;;;;;8.93;4.30;;;;;12.00;97634.00;;;;8354546;28;20331;-67
2022/10/06 18:59:11;;;;;;;5.57;3.20;;;;;11.90;97642.00;;;;8361439;28;20246;-67
2022/10/06 19:03:44;;;;;;;5.18;3.03;;;;;11.80;97641.00;;;;8361034;28;20694;-67
2022/10/06 19:08:21;;;;;;;8.65;4.28;;;;;11.60;97640.00;;;;8361193;28;20215;-68
2022/10/06 19:13:00;;;;;;;11.30;4.13;;;;;11.60;97647.00;;;;8360128;28;20320;-68
2022/10/06 19:17:34;;;;;;;10.50;4.47;;;;;11.50;97633.00;;;;8360449;28;20325;-68
2022/10/06 19:21:42;;;;;;;4.70;3.33;;;;;11.50;97647.00;;;;8360128;28;20229;-67
2022/10/06 19:26:20;;;;;;;6.60;3.17;;;;;11.30;97649.00;;;;8353546;28;20211;-68
2022/10/06 19:30:57;;;;;;;11.27;4.65;;;;;11.30;97649.00;;;;8361297;28;20546;-67
2022/10/06 19:35:28;;;;;;;6.15;3.35;;;;;11.20;97637.00;;;;8359643;28;20232;-68
2022/10/06 19:40:07;;;;;;;10.10;4.18;;;;;11.20;97642.00;;;;8360240;28;21093;-68
2022/10/06 19:44:41;;;;;;;9.85;5.22;;;;;11.10;97635.00;;;;8359986;28;20220;-68
2022/10/06 19:49:15;;;;;;;9.25;4.28;;;;;11.00;97633.00;;;;8360008;28;20220;-68
2022/10/06 19:53:55;;;;;;;9.80;5.32;;;;;10.90;97640.00;;;;8359912;28;20227;-68
2022/10/06 19:58:28;;;;;;;12.60;6.13;;;;;10.90;97640.00;;;;8355187;28;20217;-68
2022/10/06 20:03:06;;;;;;;11.00;5.80;;;;;10.90;97643.00;;;;8360402;28;20227;-69
2022/10/06 20:07:44;;;;;;;9.18;4.18;;;;;10.90;97630.00;;;;8359152;28;20231;-69
2022/10/06 20:12:20;;;;;;;15.77;5.65;;;;;10.80;97634.00;;;;8360097;28;20221;-69
2022/10/06 20:16:27;;;;;;;12.50;6.10;;;;;10.80;97632.00;;;;8359981;28;20212;-69
2022/10/06 20:20:30;;;;;;;13.07;6.18;;;;;10.70;97637.00;;;;8357837;28;20283;-69
2022/10/06 20:24:34;;;;;;;9.32;5.20;;;;;10.80;97629.00;;;;8359033;28;20235;-69
2022/10/06 20:28:39;;;;;;;8.60;4.70;;;;;10.70;97627.00;;;;8359270;28;20227;-69
2022/10/06 20:33:13;;;;;;;13.68;5.75;;;;;10.60;97637.00;;;;8362799;28;20231;-68
2022/10/06 20:37:50;;;;;;;10.40;5.60;;;;;10.50;97633.00;;;;8362555;28;20704;-68
2022/10/06 20:42:26;;;;;;;13.60;6.10;;;;;10.30;97621.00;;;;8365199;28;20224;-68
2022/10/06 20:46:33;;;;;;;12.32;6.57;;;;;10.30;97620.00;;;;8365351;28;20217;-69
2022/10/06 20:51:09;;;;;;;14.73;6.65;;;;;10.10;97615.00;;;;8364947;28;20278;-68
2022/10/06 20:55:40;;;;;;;13.70;6.53;;;;;10.10;97618.00;;;;8365040;28;20230;-68
2022/10/06 20:59:44;;;;;;;12.55;6.00;;;;;10.10;97610.00;;;;8365191;28;20258;-68
2022/10/06 21:04:16;;;;;;;8.68;5.40;;;;;10.10;97622.00;;;;8364604;28;20224;-68
2022/10/06 21:08:53;;;;;;;13.02;5.35;;;;;10.10;97620.00;;;;8365072;28;20216;-68
2022/10/06 21:12:57;;;;;;;11.20;5.45;;;;;9.90;97613.00;;;;8359487;28;20220;-68
2022/10/06 21:17:00;;;;;;;10.98;7.20;;;;;9.90;97612.00;;;;8364626;28;20221;-68
2022/10/06 21:21:06;;;;;;;12.48;5.28;;;;;9.90;97612.00;;;;8364867;28;20240;-68
2022/10/06 21:25:09;;;;;;;10.25;6.20;;;;;9.80;97609.00;;;;8362912;28;20228;-68
2022/10/06 21:29:14;;;;;;;14.95;6.80;;;;;9.90;97606.00;;;;8364039;28;20224;-68
2022/10/06 21:33:19;;;;;;;11.80;5.93;;;;;9.80;97596.00;;;;8364263;28;20220;-68
2022/10/06 21:37:23;;;;;;;13.77;6.03;;;;;9.80;97596.00;;;;8363587;28;20221;-68
2022/10/06 21:41:57;;;;;;;12.88;7.38;;;;;9.70;97595.00;;;;8364305;28;20227;-68
2022/10/06 21:46:01;;;;;;;11.32;6.93;;;;;9.70;97593.00;;;;8362598;28;20618;-68
2022/10/06 21:50:36;;;;;;;12.18;7.32;;;;;9.60;97584.00;;;;8364097;28;20220;-68
2022/10/06 21:54:40;;;;;;;15.30;6.80;;;;;9.60;97585.00;;;;8364086;28;20236;-68
2022/10/06 21:58:43;;;;;;;23.60;8.32;;;;;9.50;97576.00;;;;8363990;28;20681;-68
2022/10/06 22:02:47;;;;;;;13.27;7.40;;;;;9.50;97573.00;;;;8363273;28;20220;-68
2022/10/06 22:06:50;;;;;;;13.53;6.93;;;;;9.50;97577.00;;;;8362719;28;20240;-69
2022/10/06 22:11:30;;;;;;;11.60;6.72;;;;;9.50;97578.00;;;;8363041;28;20239;-69
2022/10/06 22:15:35;;;;;;;13.03;6.30;;;;;9.40;97580.00;;;;8362279;28;20218;-68
2022/10/06 22:19:39;;;;;;;14.43;7.43;;;;;9.40;97583.00;;;;8362483;28;20227;-68
2022/10/06 22:23:43;;;;;;;13.68;6.93;;;;;9.30;97577.00;;;;8362149;28;20228;-68
2022/10/06 22:28:19;;;;;;;11.87;6.10;;;;;9.20;97573.00;;;;8363216;28;20220;-68
2022/10/06 22:32:23;;;;;;;10.95;6.38;;;;;9.10;97576.00;;;;8361087;28;20627;-68
2022/10/06 22:36:28;;;;;;;12.55;6.68;;;;;9.00;97559.00;;;;8362906;28;20228;-68
2022/10/06 22:40:31;;;;;;;11.23;5.73;;;;;9.00;97564.00;;;;8361465;28;20224;-68
2022/10/06 22:45:05;;;;;;;9.63;5.60;;;;;9.00;97556.00;;;;8361826;28;20216;-68
2022/10/06 22:49:43;;;;;;;64.67;6.87;;;;;8.80;97551.00;;;;8361707;28;20255;-69
2022/10/06 22:53:46;;;;;;;10.97;4.90;;;;;8.70;97541.00;;;;8361224;28;20570;-68
2022/10/06 22:58:20;;;;;;;14.93;5.87;;;;;8.60;97536.00;;;;8360186;28;20665;-68